createdAt,value
2018-03-11T00:00:47.999Z,70.18
2018-03-11T00:03:15.552Z,69.72
2018-03-11T00:05:43.109Z,70.03
2018-03-11T00:08:10.755Z,69.53
2018-03-11T00:10:38.295Z,69.37
2018-03-11T00:13:05.844Z,69.76
2018-03-11T00:15:33.506Z,69.18
2018-03-11T00:18:01.059Z,69.44
2018-03-11T00:20:28.598Z,69.79
2018-03-11T00:22:56.290Z,69.53
2018-03-11T00:25:23.834Z,69.54
2018-03-11T00:27:51.379Z,69.35
2018-03-11T00:30:18.958Z,68.90
2018-03-11T00:32:46.521Z,69.94
2018-03-11T00:35:14.062Z,70.12
2018-03-11T00:37:41.640Z,69.67
2018-03-11T00:40:09.202Z,69.80
2018-03-11T00:42:36.744Z,69.72
2018-03-11T00:45:04.362Z,69.86
2018-03-11T00:47:31.904Z,69.40
2018-03-11T00:49:59.448Z,69.08
2018-03-11T00:52:27.030Z,68.10
2018-03-11T00:54:54.560Z,67.84
2018-03-11T00:57:22.107Z,67.02
2018-03-11T00:59:49.785Z,66.92
2018-03-11T01:02:17.327Z,66.98
2018-03-11T01:04:44.861Z,67.18
2018-03-11T01:07:12.441Z,67.61
2018-03-11T01:09:39.996Z,68.63
2018-03-11T01:12:07.542Z,69.01
2018-03-11T01:14:35.134Z,69.80
2018-03-11T01:17:02.671Z,70.05
2018-03-11T01:19:30.221Z,70.45
2018-03-11T01:21:58.241Z,70.25
2018-03-11T01:24:25.778Z,70.74
2018-03-11T01:26:53.318Z,71.24
2018-03-11T01:29:20.903Z,71.42
2018-03-11T01:31:48.467Z,71.70
2018-03-11T01:34:16.012Z,71.88
2018-03-11T01:36:43.887Z,71.79
2018-03-11T01:39:11.423Z,71.66
2018-03-11T01:41:38.974Z,71.98
2018-03-11T01:44:06.565Z,72.12
2018-03-11T01:46:34.110Z,71.90
2018-03-11T01:49:01.658Z,71.87
2018-03-11T01:51:29.271Z,72.11
2018-03-11T01:53:56.818Z,72.12
2018-03-11T01:56:24.357Z,71.39
2018-03-11T01:58:52.091Z,70.81
2018-03-11T02:01:19.639Z,71.21
2018-03-11T02:03:47.178Z,71.40
2018-03-11T02:06:14.933Z,71.59
2018-03-11T02:08:42.517Z,72.58
2018-03-11T02:11:10.054Z,72.66
2018-03-11T02:13:37.644Z,73.18
2018-03-11T02:16:05.204Z,73.49
2018-03-11T02:18:32.754Z,73.51
2018-03-11T02:21:00.346Z,73.17
2018-03-11T02:23:27.890Z,73.07
2018-03-11T02:25:55.434Z,72.79
2018-03-11T02:28:23.154Z,72.85
2018-03-11T02:30:50.705Z,73.20
2018-03-11T02:33:18.251Z,73.81
2018-03-11T02:35:45.815Z,74.67
2018-03-11T02:38:13.392Z,74.54
2018-03-11T02:40:40.938Z,74.37
2018-03-11T02:43:09.345Z,74.31
2018-03-11T02:45:36.891Z,74.16
2018-03-11T02:48:04.434Z,74.20
2018-03-11T02:50:32.005Z,74.08
2018-03-11T02:52:59.553Z,74.51
2018-03-11T02:55:27.077Z,75.10
2018-03-11T02:57:54.741Z,75.25
2018-03-11T03:00:22.289Z,75.78
2018-03-11T03:02:49.842Z,76.22
2018-03-11T03:05:17.421Z,76.41
2018-03-11T03:07:44.969Z,76.18
2018-03-11T03:10:12.510Z,76.12
2018-03-11T03:12:40.098Z,76.34
2018-03-11T03:15:07.653Z,76.60
2018-03-11T03:17:35.200Z,76.38
2018-03-11T03:20:02.761Z,76.10
2018-03-11T03:22:30.304Z,76.02
2018-03-11T03:24:57.850Z,76.07
2018-03-11T03:27:25.580Z,76.08
2018-03-11T03:29:53.131Z,76.13
2018-03-11T03:32:20.662Z,76.08
2018-03-11T03:34:48.393Z,76.07
2018-03-11T03:37:15.934Z,76.13
2018-03-11T03:39:43.466Z,76.47
2018-03-11T03:42:11.055Z,76.56
2018-03-11T03:44:38.600Z,76.71
2018-03-11T03:47:06.144Z,77.28
2018-03-11T03:49:33.725Z,77.78
2018-03-11T03:52:01.276Z,78.08
2018-03-11T03:54:28.825Z,78.37
2018-03-11T03:56:56.413Z,78.49
2018-03-11T03:59:23.958Z,78.48
2018-03-11T04:01:51.511Z,78.53
2018-03-11T04:04:19.197Z,78.82
2018-03-11T04:06:46.734Z,78.81
2018-03-11T04:09:14.270Z,78.94
2018-03-11T04:11:42.144Z,79.24
2018-03-11T04:14:09.686Z,79.38
2018-03-11T04:16:37.236Z,79.66
2018-03-11T04:19:04.836Z,79.60
2018-03-11T04:21:32.378Z,79.62
2018-03-11T04:23:59.916Z,79.45
2018-03-11T04:26:27.494Z,79.13
2018-03-11T04:28:55.044Z,79.08
2018-03-11T04:31:22.592Z,79.22
2018-03-11T04:33:50.859Z,79.34
2018-03-11T04:36:18.400Z,79.61
2018-03-11T04:38:45.945Z,79.91
2018-03-11T04:41:13.536Z,79.82
2018-03-11T04:43:41.071Z,79.69
2018-03-11T04:46:08.601Z,79.66
2018-03-11T04:48:36.334Z,79.59
2018-03-11T04:51:03.909Z,79.42
2018-03-11T04:53:31.463Z,79.52
2018-03-11T04:55:59.005Z,79.70
2018-03-11T04:58:26.553Z,79.36
2018-03-11T05:00:54.118Z,79.13
2018-03-11T05:03:21.694Z,78.56
2018-03-11T05:05:49.237Z,75.30
2018-03-11T05:08:16.832Z,71.76
2018-03-11T05:10:44.370Z,68.62
2018-03-11T05:13:11.928Z,65.31
2018-03-11T05:15:40.258Z,63.06
2018-03-11T05:18:07.801Z,61.40
2018-03-11T05:20:35.332Z,60.30
2018-03-11T05:23:03.061Z,58.96
2018-03-11T05:25:30.601Z,56.44
2018-03-11T05:27:58.144Z,56.69
2018-03-11T05:30:26.014Z,55.97
2018-03-11T05:32:53.566Z,55.46
2018-03-11T05:35:21.122Z,55.93
2018-03-11T05:37:48.677Z,55.85
2018-03-11T05:40:16.241Z,54.13
2018-03-11T05:42:43.794Z,53.22
2018-03-11T05:45:11.368Z,52.55
2018-03-11T05:47:38.914Z,51.37
2018-03-11T05:50:06.466Z,49.50
2018-03-11T05:52:34.049Z,48.00
2018-03-11T05:55:01.589Z,46.14
2018-03-11T05:57:29.170Z,44.25
2018-03-11T05:59:56.746Z,41.92
2018-03-11T06:02:24.301Z,41.62
2018-03-11T06:04:51.854Z,40.85
2018-03-11T06:07:19.611Z,41.13
2018-03-11T06:09:47.158Z,40.72
2018-03-11T06:12:14.724Z,39.82
2018-03-11T06:14:42.342Z,38.78
2018-03-11T06:17:09.941Z,37.82
2018-03-11T06:19:37.539Z,36.84
2018-03-11T06:22:05.275Z,36.18
2018-03-11T06:24:32.828Z,35.24
2018-03-11T06:27:00.373Z,34.76
2018-03-11T06:29:28.477Z,33.92
2018-03-11T06:31:56.041Z,33.24
2018-03-11T06:34:23.595Z,33.08
2018-03-11T06:36:51.339Z,33.48
2018-03-11T06:39:18.873Z,31.79
2018-03-11T06:41:47.299Z,31.44
2018-03-11T06:44:14.995Z,31.08
2018-03-11T06:46:42.542Z,31.22
2018-03-11T06:49:10.096Z,31.14
2018-03-11T06:51:37.698Z,31.79
2018-03-11T06:54:05.258Z,32.71
2018-03-11T06:56:32.805Z,34.43
2018-03-11T06:59:00.496Z,36.84
2018-03-11T07:01:28.055Z,38.55
2018-03-11T07:03:55.606Z,38.25
2018-03-11T07:06:23.334Z,38.75
2018-03-11T07:08:50.883Z,38.83
2018-03-11T07:11:18.443Z,36.96
2018-03-11T07:13:46.024Z,36.49
2018-03-11T07:16:13.575Z,37.63
2018-03-11T07:18:41.142Z,38.47
2018-03-11T07:21:08.731Z,38.75
2018-03-11T07:23:36.291Z,38.79
2018-03-11T07:26:03.844Z,39.18
2018-03-11T07:28:31.533Z,41.55
2018-03-11T07:30:59.083Z,42.91
2018-03-11T07:33:26.647Z,42.86
2018-03-11T07:35:54.371Z,43.32
2018-03-11T07:38:21.941Z,43.29
2018-03-11T07:40:49.494Z,44.10
2018-03-11T07:43:17.236Z,43.38
2018-03-11T07:45:44.795Z,43.08
2018-03-11T07:48:13.406Z,43.46
2018-03-11T07:50:41.027Z,43.60
2018-03-11T07:53:08.583Z,43.77
2018-03-11T07:55:36.135Z,43.94
2018-03-11T07:58:03.880Z,43.90
2018-03-11T08:00:31.433Z,43.66
2018-03-11T08:02:58.981Z,43.22
2018-03-11T08:05:26.734Z,43.23
2018-03-11T08:07:54.308Z,42.44
2018-03-11T08:10:21.872Z,42.78
2018-03-11T08:12:49.566Z,42.57
2018-03-11T08:15:17.105Z,42.78
2018-03-11T08:17:44.664Z,42.14
2018-03-11T08:20:12.285Z,42.79
2018-03-11T08:22:39.841Z,43.59
2018-03-11T08:25:07.417Z,43.07
2018-03-11T08:27:35.293Z,43.10
2018-03-11T08:30:02.862Z,43.71
2018-03-11T08:32:30.413Z,43.59
2018-03-11T08:34:58.019Z,43.77
2018-03-11T08:37:25.581Z,42.98
2018-03-11T08:39:53.126Z,42.88
2018-03-11T08:42:20.712Z,43.01
2018-03-11T08:44:48.485Z,43.06
2018-03-11T08:47:16.032Z,43.08
2018-03-11T08:49:43.960Z,41.58
2018-03-11T08:52:11.505Z,42.77
2018-03-11T08:54:39.059Z,40.77
2018-03-11T08:57:06.610Z,40.56
2018-03-11T08:59:34.158Z,39.97
2018-03-11T09:02:02.042Z,39.09
2018-03-11T09:04:29.607Z,40.52
2018-03-11T09:06:57.167Z,41.27
2018-03-11T09:09:24.768Z,40.90
2018-03-11T09:11:52.320Z,41.46
2018-03-11T09:14:19.866Z,42.92
2018-03-11T09:16:47.603Z,41.28
2018-03-11T09:19:15.154Z,41.04
2018-03-11T09:21:42.697Z,41.20
2018-03-11T09:24:10.618Z,40.54
2018-03-11T09:26:38.177Z,40.22
2018-03-11T09:29:05.755Z,40.72
2018-03-11T09:31:33.354Z,40.22
2018-03-11T09:34:00.990Z,40.20
2018-03-11T09:36:28.549Z,39.57
2018-03-11T09:38:56.233Z,39.75
2018-03-11T09:41:23.777Z,40.09
2018-03-11T09:43:51.337Z,39.37
2018-03-11T09:46:19.077Z,39.56
2018-03-11T09:48:46.641Z,39.52
2018-03-11T09:51:14.216Z,40.04
2018-03-11T09:53:41.802Z,39.43
2018-03-11T09:56:09.352Z,39.55
2018-03-11T09:58:36.929Z,39.34
2018-03-11T10:01:04.735Z,39.35
2018-03-11T10:03:32.295Z,38.97
2018-03-11T10:05:59.863Z,38.29
2018-03-11T10:08:27.455Z,38.35
2018-03-11T10:10:55.026Z,38.22
2018-03-11T10:13:22.579Z,37.91
2018-03-11T10:15:50.317Z,38.60
2018-03-11T10:18:17.866Z,38.41
2018-03-11T10:20:45.422Z,37.91
2018-03-11T10:23:13.070Z,38.03
2018-03-11T10:25:40.598Z,38.72
2018-03-11T10:28:08.150Z,38.89
2018-03-11T10:30:36.118Z,38.42
2018-03-11T10:33:03.691Z,37.97
2018-03-11T10:35:31.245Z,38.10
2018-03-11T10:37:59.041Z,38.07
2018-03-11T10:40:26.590Z,38.17
2018-03-11T10:42:54.150Z,37.93
2018-03-11T10:45:21.986Z,38.59
2018-03-11T10:47:49.549Z,38.00
2018-03-11T10:50:17.097Z,38.92
2018-03-11T10:52:44.692Z,37.44
2018-03-11T10:55:12.241Z,37.36
2018-03-11T10:57:39.802Z,38.25
2018-03-11T11:00:07.756Z,38.01
2018-03-11T11:02:37.154Z,36.89
2018-03-11T11:05:04.719Z,37.74
2018-03-11T11:07:32.474Z,38.08
2018-03-11T11:10:00.020Z,37.46
2018-03-11T11:12:27.579Z,36.82
2018-03-11T11:14:55.179Z,36.91
2018-03-11T11:17:22.729Z,36.89
2018-03-11T11:19:50.311Z,36.72
2018-03-11T11:22:18.042Z,36.75
2018-03-11T11:24:45.591Z,37.67
2018-03-11T11:27:13.138Z,37.19
2018-03-11T11:29:41.506Z,36.73
2018-03-11T11:32:09.060Z,36.68
2018-03-11T11:34:36.622Z,35.98
2018-03-11T11:37:04.378Z,36.47
2018-03-11T11:39:31.921Z,36.46
2018-03-11T11:41:59.476Z,35.46
2018-03-11T11:44:27.545Z,35.70
2018-03-11T11:46:55.099Z,36.32
2018-03-11T11:49:22.674Z,35.24
2018-03-11T11:51:50.244Z,34.81
2018-03-11T11:54:17.805Z,35.10
2018-03-11T11:56:45.364Z,34.89
2018-03-11T11:59:12.956Z,34.94
2018-03-11T12:01:40.514Z,34.71
2018-03-11T12:04:08.065Z,34.83
2018-03-11T12:06:35.942Z,35.47
2018-03-11T12:09:03.561Z,35.09
2018-03-11T12:11:31.112Z,35.16
2018-03-11T12:13:58.756Z,35.68
2018-03-11T12:16:26.290Z,36.59
2018-03-11T12:18:53.838Z,35.67
2018-03-11T12:21:21.422Z,35.07
2018-03-11T12:23:49.002Z,34.86
2018-03-11T12:26:16.560Z,35.83
2018-03-11T12:28:44.135Z,36.55
2018-03-11T12:31:11.693Z,34.80
2018-03-11T12:33:39.247Z,34.11
2018-03-11T12:36:06.942Z,33.84
2018-03-11T12:38:34.510Z,34.08
2018-03-11T12:41:02.122Z,34.81
2018-03-11T12:43:29.787Z,34.46
2018-03-11T12:45:57.334Z,34.55
2018-03-11T12:48:24.883Z,35.00
2018-03-11T12:50:52.474Z,34.00
2018-03-11T12:53:20.017Z,33.87
2018-03-11T12:55:47.763Z,34.36
2018-03-11T12:58:15.390Z,34.18
2018-03-11T13:00:42.942Z,34.05
2018-03-11T13:03:10.494Z,34.15
2018-03-11T13:05:38.225Z,34.74
2018-03-11T13:08:05.786Z,34.33
2018-03-11T13:10:33.358Z,34.15
2018-03-11T13:13:00.947Z,34.22
2018-03-11T13:15:28.527Z,34.84
2018-03-11T13:17:56.105Z,34.49
2018-03-11T13:20:35.697Z,34.13
2018-03-11T13:23:03.250Z,33.47
2018-03-11T13:25:30.813Z,34.14
2018-03-11T13:28:10.148Z,33.98
2018-03-11T13:30:37.705Z,34.26
2018-03-11T13:33:17.067Z,33.73
2018-03-11T13:35:44.625Z,33.29
2018-03-11T13:38:24.160Z,33.52
2018-03-11T13:40:51.739Z,34.28
2018-03-11T13:43:19.297Z,33.29
2018-03-11T13:45:58.654Z,33.27
2018-03-11T13:48:26.245Z,33.92
2018-03-11T13:50:53.787Z,33.48
2018-03-11T13:53:33.415Z,33.32
2018-03-11T13:56:00.976Z,34.05
2018-03-11T13:58:40.250Z,33.63
2018-03-11T14:01:07.797Z,33.64
2018-03-11T14:03:35.337Z,33.68
2018-03-11T14:06:02.937Z,33.77
2018-03-11T14:08:31.396Z,33.84
2018-03-11T14:10:58.960Z,34.31
2018-03-11T14:13:26.558Z,33.69
2018-03-11T14:15:54.120Z,33.84
2018-03-11T14:18:21.679Z,34.44
2018-03-11T14:20:49.395Z,33.90
2018-03-11T14:23:17.013Z,34.02
2018-03-11T14:25:44.599Z,34.12
2018-03-11T14:28:12.303Z,33.99
2018-03-11T14:30:40.240Z,34.04
2018-03-11T14:33:07.792Z,35.09
2018-03-11T14:35:35.400Z,34.30
2018-03-11T14:38:02.960Z,35.38
2018-03-11T14:40:30.517Z,34.80
2018-03-11T14:42:58.221Z,35.11
2018-03-11T14:45:25.777Z,34.63
2018-03-11T14:47:53.327Z,35.21
2018-03-11T14:50:20.918Z,35.37
2018-03-11T14:52:48.479Z,35.35
2018-03-11T14:55:16.057Z,35.59
2018-03-11T14:57:43.606Z,35.61
2018-03-11T15:00:11.173Z,37.24
2018-03-11T15:02:39.070Z,38.15
2018-03-11T15:05:06.662Z,38.68
2018-03-11T15:07:34.228Z,38.90
2018-03-11T15:10:01.811Z,39.70
2018-03-11T15:12:29.374Z,39.14
2018-03-11T15:14:56.940Z,39.48
2018-03-11T15:17:24.677Z,39.34
2018-03-11T15:19:52.220Z,39.80
2018-03-11T15:22:19.785Z,39.91
2018-03-11T15:24:47.367Z,39.92
2018-03-11T15:27:14.921Z,39.95
2018-03-11T15:29:42.503Z,39.47
2018-03-11T15:32:10.595Z,38.94
2018-03-11T15:34:38.156Z,39.66
2018-03-11T15:37:05.721Z,39.70
2018-03-11T15:39:33.461Z,40.81
2018-03-11T15:42:01.020Z,41.84
2018-03-11T15:44:28.570Z,42.75
2018-03-11T15:46:56.286Z,42.75
2018-03-11T15:49:23.876Z,42.46
2018-03-11T15:51:51.440Z,42.11
2018-03-11T15:54:19.186Z,42.62
2018-03-11T15:56:46.747Z,43.54
2018-03-11T15:59:14.307Z,44.03
2018-03-11T16:01:41.887Z,44.94
2018-03-11T16:04:09.441Z,45.69
2018-03-11T16:06:37.025Z,45.23
2018-03-11T16:09:04.711Z,45.42
2018-03-11T16:11:32.261Z,45.21
2018-03-11T16:13:59.864Z,45.22
2018-03-11T16:16:27.476Z,45.82
2018-03-11T16:18:55.063Z,46.19
2018-03-11T16:21:22.625Z,46.38
2018-03-11T16:23:50.300Z,47.36
2018-03-11T16:26:17.860Z,47.85
2018-03-11T16:28:45.413Z,47.34
2018-03-11T16:31:13.097Z,46.67
2018-03-11T16:33:40.662Z,47.46
2018-03-11T16:36:08.238Z,47.78
2018-03-11T16:38:35.827Z,47.68
2018-03-11T16:41:03.394Z,47.85
2018-03-11T16:43:30.958Z,47.92
2018-03-11T16:45:58.525Z,47.90
2018-03-11T16:48:26.079Z,47.35
2018-03-11T16:50:53.672Z,46.87
2018-03-11T16:53:21.474Z,45.83
2018-03-11T16:55:49.053Z,46.00
2018-03-11T16:58:16.652Z,46.06
2018-03-11T17:00:44.257Z,45.84
2018-03-11T17:03:11.801Z,46.21
2018-03-11T17:05:39.355Z,46.59
2018-03-11T17:08:07.149Z,46.37
2018-03-11T17:10:34.718Z,46.42
2018-03-11T17:13:02.310Z,46.18
2018-03-11T17:15:29.888Z,46.28
2018-03-11T17:17:57.449Z,46.03
2018-03-11T17:20:25.037Z,44.85
2018-03-11T17:22:52.635Z,47.81
2018-03-11T17:25:20.227Z,49.15
2018-03-11T17:27:47.816Z,49.53
2018-03-11T17:30:15.556Z,50.76
2018-03-11T17:32:43.140Z,50.67
2018-03-11T17:35:10.702Z,51.07
2018-03-11T17:37:38.458Z,51.62
2018-03-11T17:40:06.102Z,51.52
2018-03-11T17:42:33.715Z,51.71
2018-03-11T17:45:01.504Z,51.90
2018-03-11T17:47:29.078Z,53.31
2018-03-11T17:49:56.668Z,53.72
2018-03-11T17:52:24.437Z,53.08
2018-03-11T17:54:51.986Z,52.74
2018-03-11T17:57:19.542Z,53.01
2018-03-11T17:59:47.120Z,51.65
2018-03-11T18:02:14.658Z,49.28
2018-03-11T18:04:42.235Z,49.41
2018-03-11T18:07:09.828Z,48.82
2018-03-11T18:09:37.455Z,49.27
2018-03-11T18:12:05.015Z,45.99
2018-03-11T18:14:32.935Z,46.17
2018-03-11T18:17:00.484Z,45.95
2018-03-11T18:19:28.044Z,46.21
2018-03-11T18:21:55.794Z,45.02
2018-03-11T18:24:23.372Z,43.60
2018-03-11T18:26:50.933Z,43.80
2018-03-11T18:29:18.546Z,43.68
2018-03-11T18:31:46.931Z,43.06
2018-03-11T18:34:14.483Z,42.86
2018-03-11T18:36:42.409Z,42.64
2018-03-11T18:39:09.958Z,42.53
2018-03-11T18:41:37.522Z,42.20
2018-03-11T18:44:05.109Z,44.34
2018-03-11T18:46:32.693Z,45.59
2018-03-11T18:49:00.288Z,47.13
2018-03-11T18:51:28.220Z,47.72
2018-03-11T18:53:55.790Z,48.70
2018-03-11T18:56:23.357Z,48.88
2018-03-11T18:58:51.092Z,49.58
2018-03-11T19:01:18.692Z,50.56
2018-03-11T19:03:46.300Z,51.55
2018-03-11T19:06:14.040Z,50.73
2018-03-11T19:08:41.599Z,49.50
2018-03-11T19:11:09.155Z,50.20
2018-03-11T19:13:36.864Z,51.09
2018-03-11T19:16:04.437Z,51.47
2018-03-11T19:18:32.014Z,52.02
2018-03-11T19:20:59.597Z,52.26
2018-03-11T19:23:27.178Z,53.80
2018-03-11T19:25:54.830Z,54.19
2018-03-11T19:28:22.446Z,54.22
2018-03-11T19:30:50.018Z,54.57
2018-03-11T19:33:17.614Z,55.40
2018-03-11T19:35:45.211Z,55.81
2018-03-11T19:38:12.792Z,56.27
2018-03-11T19:40:40.360Z,56.83
2018-03-11T19:43:08.003Z,57.46
2018-03-11T19:45:35.619Z,57.51
2018-03-11T19:48:03.247Z,57.82
2018-03-11T19:50:30.863Z,58.04
2018-03-11T19:52:58.455Z,57.88
2018-03-11T19:55:26.086Z,58.42
2018-03-11T19:57:53.691Z,58.88
2018-03-11T20:00:21.255Z,59.12
2018-03-11T20:02:49.045Z,59.37
2018-03-11T20:05:16.631Z,59.13
2018-03-11T20:07:44.187Z,58.90
2018-03-11T20:10:12.063Z,59.06
2018-03-11T20:12:39.622Z,59.81
2018-03-11T20:15:07.189Z,60.06
2018-03-11T20:17:35.080Z,59.97
2018-03-11T20:20:02.693Z,60.09
2018-03-11T20:22:30.292Z,59.97
2018-03-11T20:24:57.884Z,60.34
2018-03-11T20:27:25.448Z,60.96
2018-03-11T20:29:53.024Z,60.16
2018-03-11T20:32:20.773Z,59.66
2018-03-11T20:34:48.342Z,61.00
2018-03-11T20:37:15.918Z,60.23
2018-03-11T20:39:43.524Z,59.50
2018-03-11T20:42:11.065Z,59.64
2018-03-11T20:44:38.638Z,59.07
2018-03-11T20:47:06.215Z,59.31
2018-03-11T20:49:33.780Z,59.22
2018-03-11T20:52:01.343Z,59.50
2018-03-11T20:54:28.936Z,59.74
2018-03-11T20:56:56.514Z,59.94
2018-03-11T20:59:24.106Z,60.57
2018-03-11T21:01:52.799Z,61.04
2018-03-11T21:04:20.368Z,61.69
2018-03-11T21:06:47.943Z,61.53
2018-03-11T21:09:15.722Z,61.86
2018-03-11T21:11:43.277Z,61.91
2018-03-11T21:14:10.834Z,62.43
2018-03-11T21:16:38.427Z,61.75
2018-03-11T21:19:05.993Z,61.83
2018-03-11T21:21:33.592Z,61.37
2018-03-11T21:24:01.392Z,61.24
2018-03-11T21:26:28.956Z,62.07
2018-03-11T21:28:56.533Z,62.57
2018-03-11T21:31:24.229Z,62.65
2018-03-11T21:33:51.844Z,62.81
2018-03-11T21:36:19.409Z,62.89
2018-03-11T21:38:47.151Z,63.72
2018-03-11T21:41:14.706Z,64.46
2018-03-11T21:43:42.269Z,64.47
2018-03-11T21:46:10.034Z,64.46
2018-03-11T21:48:37.581Z,63.92
2018-03-11T21:51:05.145Z,64.69
2018-03-11T21:53:32.739Z,64.79
2018-03-11T21:56:00.319Z,64.42
2018-03-11T21:58:27.915Z,64.29
2018-03-11T22:00:55.605Z,64.62
2018-03-11T22:03:23.159Z,64.37
2018-03-11T22:05:50.737Z,63.91
2018-03-11T22:08:18.359Z,64.06
2018-03-11T22:10:45.912Z,64.84
2018-03-11T22:13:13.456Z,65.08
2018-03-11T22:15:41.201Z,64.74
2018-03-11T22:18:08.753Z,64.58
2018-03-11T22:20:36.321Z,64.74
2018-03-11T22:23:04.052Z,64.60
2018-03-11T22:25:31.612Z,65.09
2018-03-11T22:27:59.175Z,65.38
2018-03-11T22:30:26.912Z,64.91
2018-03-11T22:32:54.453Z,65.32
2018-03-11T22:35:22.010Z,64.83
2018-03-11T22:37:49.739Z,65.10
2018-03-11T22:40:17.290Z,64.79
2018-03-11T22:42:44.834Z,65.78
2018-03-11T22:45:12.422Z,65.45
2018-03-11T22:47:39.984Z,65.52
2018-03-11T22:50:07.538Z,65.59
2018-03-11T22:52:35.297Z,65.42
2018-03-11T22:55:02.838Z,65.24
2018-03-11T22:57:30.389Z,65.53
2018-03-11T22:59:58.126Z,65.37
2018-03-11T23:02:25.671Z,65.00
2018-03-11T23:04:53.225Z,64.39
2018-03-11T23:07:20.835Z,64.50
2018-03-11T23:09:48.382Z,65.87
2018-03-11T23:12:15.927Z,66.10
2018-03-11T23:14:43.610Z,65.64
2018-03-11T23:17:11.157Z,65.27
2018-03-11T23:19:38.707Z,64.67
2018-03-11T23:22:06.568Z,63.78
2018-03-11T23:24:34.144Z,63.59
2018-03-11T23:27:01.697Z,63.65
2018-03-11T23:29:29.580Z,63.63
2018-03-11T23:31:57.125Z,63.83
2018-03-11T23:34:24.692Z,63.71
2018-03-11T23:36:52.275Z,64.14
2018-03-11T23:39:19.815Z,63.93
2018-03-11T23:41:47.376Z,63.63
2018-03-11T23:44:14.960Z,64.04
2018-03-11T23:46:42.497Z,64.05
2018-03-11T23:49:10.048Z,64.26
2018-03-11T23:51:37.635Z,64.52
2018-03-11T23:54:05.201Z,64.08
2018-03-11T23:56:32.747Z,63.96
2018-03-11T23:59:00.625Z,64.21
